createdAt,value
2022-11-24T00:04:38.718Z,2.60
2022-11-24T00:09:40.527Z,2.56
2022-11-24T00:14:42.322Z,2.55
2022-11-24T00:24:44.554Z,2.53
2022-11-24T00:29:46.269Z,2.50
2022-11-24T00:34:48.063Z,2.49
2022-11-24T00:39:49.823Z,2.46
2022-11-24T00:44:51.571Z,2.44
2022-11-24T00:49:53.563Z,2.44
2022-11-24T00:54:55.324Z,2.41
2022-11-24T00:59:57.053Z,2.40
2022-11-24T01:04:58.813Z,2.39
2022-11-24T01:10:00.565Z,2.39
2022-11-24T01:15:02.361Z,2.38
2022-11-24T01:20:05.040Z,2.35
2022-11-24T01:25:07.454Z,2.34
2022-11-24T01:30:09.986Z,2.36
2022-11-24T01:35:11.828Z,2.40
2022-11-24T01:40:13.619Z,2.42
2022-11-24T01:45:27.416Z,2.41
2022-11-24T01:50:29.216Z,2.38
2022-11-24T01:55:36.630Z,2.36
2022-11-24T02:00:41.269Z,2.34
2022-11-24T02:05:51.312Z,2.33
2022-11-24T02:10:56.789Z,2.32
2022-11-24T02:15:58.827Z,2.31
2022-11-24T02:21:01.331Z,2.30
2022-11-24T02:26:03.144Z,2.30
2022-11-24T02:31:05.954Z,2.26
2022-11-24T02:36:08.023Z,2.23
2022-11-24T02:41:16.781Z,2.21
2022-11-24T02:46:18.723Z,2.19
2022-11-24T02:51:20.779Z,2.19
2022-11-24T02:56:22.575Z,2.21
2022-11-24T03:01:24.378Z,2.20
2022-11-24T03:06:26.223Z,2.21
2022-11-24T03:11:31.131Z,2.24
2022-11-24T03:16:33.456Z,2.23
2022-11-24T03:21:36.940Z,2.22
2022-11-24T03:26:42.277Z,2.21
2022-11-24T03:31:44.377Z,2.16
2022-11-24T03:36:46.183Z,2.13
2022-11-24T03:41:48.009Z,2.11
2022-11-24T03:46:51.089Z,2.10
2022-11-24T03:51:52.942Z,2.07
2022-11-24T03:56:54.869Z,2.05
2022-11-24T04:01:56.801Z,2.01
2022-11-24T04:06:58.780Z,2.00
2022-11-24T04:12:19.306Z,1.99
2022-11-24T04:17:21.106Z,2.00
2022-11-24T04:22:22.922Z,1.99
2022-11-24T04:27:24.955Z,2.03
2022-11-24T04:32:26.861Z,2.06
2022-11-24T04:37:28.693Z,2.10
2022-11-24T04:42:30.649Z,2.12
2022-11-24T04:47:33.566Z,2.17
2022-11-24T04:52:35.396Z,2.20
2022-11-24T04:57:37.452Z,2.23
2022-11-24T05:02:39.346Z,2.26
2022-11-24T05:07:41.196Z,2.31
2022-11-24T05:12:45.841Z,2.36
2022-11-24T05:17:52.472Z,2.39
2022-11-24T05:22:54.215Z,2.43
2022-11-24T05:28:00.140Z,2.48
2022-11-24T05:33:05.873Z,2.51
2022-11-24T05:38:07.725Z,2.54
2022-11-24T05:43:14.612Z,2.58
2022-11-24T05:48:16.586Z,2.68
2022-11-24T05:53:18.514Z,2.72
2022-11-24T05:58:20.692Z,2.74
2022-11-24T06:03:22.636Z,2.79
2022-11-24T06:08:29.548Z,2.89
2022-11-24T06:13:33.045Z,3.02
2022-11-24T06:18:35.282Z,3.14
2022-11-24T06:23:37.242Z,3.22
2022-11-24T06:28:39.142Z,3.31
2022-11-24T06:33:41.170Z,3.40
2022-11-24T06:38:43.074Z,3.48
2022-11-24T06:43:45.930Z,3.56
2022-11-24T06:48:47.717Z,3.62
2022-11-24T06:53:49.590Z,3.67
2022-11-24T06:58:53.457Z,3.70
2022-11-24T07:03:57.253Z,3.75
2022-11-24T07:08:59.050Z,3.79
2022-11-24T07:14:01.333Z,3.83
2022-11-24T07:19:03.369Z,3.86
2022-11-24T07:24:06.090Z,3.88
2022-11-24T07:29:08.032Z,3.93
2022-11-24T07:34:10.375Z,3.96
2022-11-24T07:39:12.305Z,3.99
2022-11-24T07:44:14.070Z,4.03
2022-11-24T07:49:15.873Z,4.10
2022-11-24T07:54:17.624Z,4.14
2022-11-24T07:59:19.623Z,4.18
2022-11-24T08:04:22.250Z,4.23
2022-11-24T08:09:24.475Z,4.29
2022-11-24T08:14:26.430Z,4.36
2022-11-24T08:19:28.662Z,4.45
2022-11-24T08:24:31.655Z,4.51
2022-11-24T08:29:36.507Z,4.59
2022-11-24T08:34:38.923Z,4.64
2022-11-24T08:39:41.125Z,4.70
2022-11-24T08:44:43.175Z,4.74
2022-11-24T08:49:45.357Z,4.77
2022-11-24T08:54:47.289Z,4.80
2022-11-24T08:59:49.221Z,4.84
2022-11-24T09:04:51.384Z,4.85
2022-11-24T09:09:53.641Z,4.85
2022-11-24T09:14:55.429Z,4.86
2022-11-24T09:19:57.661Z,4.88
2022-11-24T09:24:59.507Z,4.90
2022-11-24T09:30:01.933Z,4.93
2022-11-24T09:35:04.281Z,4.99
2022-11-24T09:40:07.433Z,5.09
2022-11-24T09:51:11.896Z,5.42
2022-11-24T09:56:43.070Z,5.47
2022-11-24T10:01:47.560Z,5.48
2022-11-24T10:07:14.212Z,5.52
2022-11-24T10:12:49.761Z,5.54
2022-11-24T10:17:54.484Z,5.57
2022-11-24T10:23:15.174Z,5.60
2022-11-24T10:28:17.576Z,5.64
2022-11-24T10:33:28.730Z,5.68
2022-11-24T10:38:42.560Z,5.76
2022-11-24T10:43:44.643Z,5.83
2022-11-24T10:48:56.579Z,5.88
2022-11-24T10:54:06.092Z,5.95
2022-11-24T10:59:33.000Z,6.03
2022-11-24T11:04:36.827Z,6.12
2022-11-24T11:09:38.877Z,6.21
2022-11-24T11:14:41.183Z,6.33
2022-11-24T11:19:49.554Z,6.42
2022-11-24T11:25:05.905Z,6.43
2022-11-24T11:35:46.480Z,6.38
2022-11-24T11:40:51.635Z,6.36
2022-11-24T11:46:05.654Z,6.38
2022-11-24T11:51:26.587Z,6.38
2022-11-24T11:56:40.532Z,6.41
2022-11-24T12:01:51.038Z,6.43
2022-11-24T12:07:32.298Z,6.44
2022-11-24T12:13:32.558Z,6.54
2022-11-24T12:18:57.691Z,6.61
2022-11-24T12:24:03.435Z,6.64
2022-11-24T12:29:34.456Z,6.67
2022-11-24T12:35:00.425Z,6.69
2022-11-24T12:40:17.884Z,6.69
2022-11-24T12:45:40.175Z,6.75
2022-11-24T12:50:46.113Z,6.82
2022-11-24T12:55:48.524Z,6.90
2022-11-24T13:01:02.723Z,6.97
2022-11-24T13:06:22.469Z,7.01
2022-11-24T13:11:34.913Z,7.06
2022-11-24T13:17:28.145Z,7.12
2022-11-24T13:22:26.654Z,7.17
2022-11-24T13:27:41.548Z,7.20
2022-11-24T13:32:43.519Z,7.19
2022-11-24T13:37:48.956Z,7.17
2022-11-24T13:43:02.590Z,7.15
2022-11-24T13:48:24.699Z,7.15
2022-11-24T13:53:45.301Z,7.14
2022-11-24T13:58:52.642Z,7.12
2022-11-24T14:04:29.327Z,7.12
2022-11-24T14:09:43.785Z,7.10
2022-11-24T14:14:50.619Z,7.06
2022-11-24T14:19:55.298Z,7.07
2022-11-24T14:24:59.571Z,7.08
2022-11-24T14:30:23.837Z,7.10
2022-11-24T14:35:36.198Z,7.11
2022-11-24T14:40:38.832Z,7.12
2022-11-24T14:45:52.400Z,7.11
2022-11-24T14:51:10.778Z,7.08
2022-11-24T14:56:30.533Z,7.07
2022-11-24T15:01:34.719Z,7.07
2022-11-24T15:06:36.910Z,7.06
2022-11-24T15:11:38.880Z,7.06
2022-11-24T15:16:40.710Z,7.04
2022-11-24T15:21:42.574Z,7.04
2022-11-24T15:26:45.528Z,7.03
2022-11-24T15:31:52.443Z,7.03
2022-11-24T15:36:55.532Z,7.00
2022-11-24T15:41:57.307Z,6.95
2022-11-24T15:46:59.646Z,6.91
2022-11-24T15:52:01.988Z,6.89
2022-11-24T15:57:03.911Z,6.86
2022-11-24T16:02:05.972Z,6.82
2022-11-24T16:07:12.604Z,6.81
2022-11-24T16:12:14.571Z,6.78
2022-11-24T16:17:16.628Z,6.71
2022-11-24T16:22:18.448Z,6.71
2022-11-24T16:27:20.206Z,6.69
2022-11-24T16:32:22.035Z,6.67
2022-11-24T16:37:24.502Z,6.63
2022-11-24T16:42:26.277Z,6.60
2022-11-24T16:47:28.199Z,6.59
2022-11-24T16:52:29.925Z,6.60
2022-11-24T16:57:31.894Z,6.59
2022-11-24T17:02:34.388Z,6.60
2022-11-24T17:07:36.379Z,6.62
2022-11-24T17:12:38.194Z,6.65
2022-11-24T17:18:01.345Z,6.64
2022-11-24T17:23:02.191Z,6.65
2022-11-24T17:28:04.114Z,6.66
2022-11-24T17:33:06.070Z,6.66
2022-11-24T17:38:08.279Z,6.65
2022-11-24T17:43:10.107Z,6.64
2022-11-24T17:48:11.947Z,6.63
2022-11-24T17:53:13.858Z,6.61
2022-11-24T17:58:15.667Z,6.55
2022-11-24T18:03:17.443Z,6.54
2022-11-24T18:08:19.275Z,6.57
2022-11-24T18:13:41.127Z,6.61
2022-11-24T18:18:47.403Z,6.63
2022-11-24T18:23:52.176Z,6.66
2022-11-24T18:28:54.413Z,6.70
2022-11-24T18:33:56.247Z,6.74
2022-11-24T18:39:04.144Z,6.79
2022-11-24T18:44:08.621Z,6.85
2022-11-24T18:49:10.622Z,6.83
2022-11-24T18:54:13.428Z,6.83
2022-11-24T18:59:15.327Z,6.86
2022-11-24T19:04:17.765Z,6.85
2022-11-24T19:09:22.799Z,6.87
2022-11-24T19:14:24.861Z,6.87
2022-11-24T19:19:28.830Z,6.88
2022-11-24T19:24:30.529Z,6.87
2022-11-24T19:29:32.728Z,6.86
2022-11-24T19:34:34.779Z,6.83
2022-11-24T19:39:36.937Z,6.83
2022-11-24T19:44:38.771Z,6.81
2022-11-24T19:49:40.751Z,6.80
2022-11-24T19:54:42.623Z,6.80
2022-11-24T19:59:46.096Z,6.78
2022-11-24T20:04:47.954Z,6.77
2022-11-24T20:09:49.773Z,6.77
2022-11-24T20:14:51.584Z,6.76
2022-11-24T20:19:53.555Z,6.76
2022-11-24T20:24:55.352Z,6.76
2022-11-24T20:29:57.166Z,6.75
2022-11-24T20:34:58.959Z,6.74
2022-11-24T20:40:03.392Z,6.74
2022-11-24T20:45:05.473Z,6.74
2022-11-24T20:50:07.458Z,6.75
2022-11-24T20:55:09.722Z,6.76
2022-11-24T21:00:12.432Z,6.76
2022-11-24T21:05:14.230Z,6.75
2022-11-24T21:10:16.093Z,6.76
2022-11-24T21:15:17.858Z,6.76
2022-11-24T21:20:19.659Z,6.77
2022-11-24T21:25:21.695Z,6.76
2022-11-24T21:30:24.286Z,6.77
2022-11-24T21:35:26.083Z,6.76
2022-11-24T21:40:28.562Z,6.76
2022-11-24T21:45:30.601Z,6.76
2022-11-24T21:50:33.041Z,6.76
2022-11-24T21:55:35.049Z,6.75
2022-11-24T22:00:37.926Z,6.76
2022-11-24T22:05:39.634Z,6.76
2022-11-24T22:10:41.351Z,6.77
2022-11-24T22:15:43.422Z,6.78
2022-11-24T22:20:55.836Z,6.78
2022-11-24T22:26:19.482Z,6.78
2022-11-24T22:31:24.231Z,6.75
2022-11-24T22:36:28.475Z,6.70
2022-11-24T22:41:33.059Z,6.65
2022-11-24T22:46:34.907Z,6.60
2022-11-24T22:51:39.180Z,6.55
2022-11-24T22:56:40.946Z,6.48
2022-11-24T23:01:42.947Z,6.44
2022-11-24T23:06:44.788Z,6.39
2022-11-24T23:11:46.564Z,6.35
2022-11-24T23:16:48.481Z,6.30
2022-11-24T23:21:50.405Z,6.25
2022-11-24T23:26:52.732Z,6.20
2022-11-24T23:31:54.576Z,6.14
2022-11-24T23:36:56.527Z,6.06
2022-11-24T23:41:58.231Z,6.03
2022-11-24T23:47:00.079Z,5.98
2022-11-24T23:52:01.852Z,5.96
2022-11-24T23:57:03.691Z,5.97
